Terminal Aerodrome Forecast
Issued by NWS

Home | Current Version | Previous Version | Graphics & Text | Print | Product List | Glossary On
Versions: 1 2 3 4 5 6 7 8 9 10 11 12 13 14 15 16 17 18 19
000
FTUS43 KGRB 240536
TAFATW
TAF
KATW 240536Z 2406/2506 18010KT P6SM SCT050 BKN100
      TEMPO 2406/2410 1SM TSRA BKN025CB
     FM241000 16006KT P6SM SCT025 OVC040 WS020/21035KT
      TEMPO 2410/2414 5SM -SHRA
     FM241500 22010G18KT 6SM HZ SCT025 BKN050
     FM242000 26010G18KT P6SM SCT050
     FM250100 27005KT P6SM FEW050=

USA.gov is the U.S. government's official web portal to all federal, state and local government web resources and services.